sensor_id;sensor_type;location;lat;lon;timestamp;P1;durP1;ratioP1;P2;durP2;ratioP2
43933;SDS011;59081;42.706;23.306;2022-09-28T00:01:18;30.63;;;16.42;;
43933;SDS011;59081;42.706;23.306;2022-09-28T00:03:55;24.75;;;16.58;;
43933;SDS011;59081;42.706;23.306;2022-09-28T00:06:32;29.52;;;18.90;;
43933;SDS011;59081;42.706;23.306;2022-09-28T00:09:00;30.70;;;17.52;;
43933;SDS011;59081;42.706;23.306;2022-09-28T00:11:34;23.95;;;16.85;;
43933;SDS011;59081;42.706;23.306;2022-09-28T00:14:03;27.23;;;16.35;;
43933;SDS011;59081;42.706;23.306;2022-09-28T00:16:37;21.75;;;14.80;;
43933;SDS011;59081;42.706;23.306;2022-09-28T00:19:07;25.83;;;16.65;;
43933;SDS011;59081;42.706;23.306;2022-09-28T00:21:35;25.05;;;16.88;;
43933;SDS011;59081;42.706;23.306;2022-09-28T00:24:06;26.90;;;17.17;;
43933;SDS011;59081;42.706;23.306;2022-09-28T00:26:37;28.70;;;16.25;;
43933;SDS011;59081;42.706;23.306;2022-09-28T00:29:05;25.05;;;15.45;;
43933;SDS011;59081;42.706;23.306;2022-09-28T00:31:40;22.35;;;14.93;;
43933;SDS011;59081;42.706;23.306;2022-09-28T00:34:09;24.27;;;15.13;;
43933;SDS011;59081;42.706;23.306;2022-09-28T00:36:35;29.92;;;15.57;;
43933;SDS011;59081;42.706;23.306;2022-09-28T00:39:04;23.08;;;14.77;;
43933;SDS011;59081;42.706;23.306;2022-09-28T00:41:36;24.58;;;14.45;;
43933;SDS011;59081;42.706;23.306;2022-09-28T00:44:29;26.27;;;15.85;;
43933;SDS011;59081;42.706;23.306;2022-09-28T00:49:33;23.60;;;15.27;;
43933;SDS011;59081;42.706;23.306;2022-09-28T00:52:06;30.95;;;16.88;;
43933;SDS011;59081;42.706;23.306;2022-09-28T00:54:39;22.10;;;15.27;;
43933;SDS011;59081;42.706;23.306;2022-09-28T00:57:10;27.25;;;16.85;;
43933;SDS011;59081;42.706;23.306;2022-09-28T00:59:47;39.45;;;15.00;;
43933;SDS011;59081;42.706;23.306;2022-09-28T01:02:17;88.50;;;17.13;;
43933;SDS011;59081;42.706;23.306;2022-09-28T01:04:46;26.33;;;16.27;;
43933;SDS011;59081;42.706;23.306;2022-09-28T01:07:16;28.75;;;14.98;;
43933;SDS011;59081;42.706;23.306;2022-09-28T01:09:53;32.17;;;15.80;;
43933;SDS011;59081;42.706;23.306;2022-09-28T01:12:20;35.10;;;15.10;;
43933;SDS011;59081;42.706;23.306;2022-09-28T01:14:49;54.08;;;15.23;;
43933;SDS011;59081;42.706;23.306;2022-09-28T01:17:29;49.90;;;13.82;;
43933;SDS011;59081;42.706;23.306;2022-09-28T01:20:19;89.95;;;11.93;;
43933;SDS011;59081;42.706;23.306;2022-09-28T01:23:15;65.68;;;12.88;;
43933;SDS011;59081;42.706;23.306;2022-09-28T01:28:52;27.33;;;11.98;;
43933;SDS011;59081;42.706;23.306;2022-09-28T01:31:25;37.00;;;12.63;;
43933;SDS011;59081;42.706;23.306;2022-09-28T01:34:56;31.23;;;12.73;;
43933;SDS011;59081;42.706;23.306;2022-09-28T01:37:06;47.00;;;12.30;;
43933;SDS011;59081;42.706;23.306;2022-09-28T01:39:47;43.90;;;11.88;;
43933;SDS011;59081;42.706;23.306;2022-09-28T01:42:21;23.90;;;11.75;;
43933;SDS011;59081;42.706;23.306;2022-09-28T01:44:55;28.63;;;11.60;;
43933;SDS011;59081;42.706;23.306;2022-09-28T01:47:32;29.50;;;12.30;;
43933;SDS011;59081;42.706;23.306;2022-09-28T01:50:11;24.00;;;12.52;;
43933;SDS011;59081;42.706;23.306;2022-09-28T01:52:50;20.13;;;12.38;;
43933;SDS011;59081;42.706;23.306;2022-09-28T01:55:32;18.73;;;12.85;;
43933;SDS011;59081;42.706;23.306;2022-09-28T01:58:07;26.33;;;13.48;;
43933;SDS011;59081;42.706;23.306;2022-09-28T02:00:41;24.67;;;15.13;;
43933;SDS011;59081;42.706;23.306;2022-09-28T02:03:16;25.35;;;13.63;;
43933;SDS011;59081;42.706;23.306;2022-09-28T02:06:00;28.02;;;14.93;;
43933;SDS011;59081;42.706;23.306;2022-09-28T02:08:38;31.27;;;13.70;;
43933;SDS011;59081;42.706;23.306;2022-09-28T02:11:17;24.90;;;13.52;;
43933;SDS011;59081;42.706;23.306;2022-09-28T02:16:44;20.88;;;13.25;;
43933;SDS011;59081;42.706;23.306;2022-09-28T02:19:16;22.80;;;13.70;;
43933;SDS011;59081;42.706;23.306;2022-09-28T02:24:40;20.10;;;13.10;;
43933;SDS011;59081;42.706;23.306;2022-09-28T02:27:36;24.45;;;14.52;;
43933;SDS011;59081;42.706;23.306;2022-09-28T02:30:12;23.58;;;14.60;;
43933;SDS011;59081;42.706;23.306;2022-09-28T02:32:44;24.25;;;14.30;;
43933;SDS011;59081;42.706;23.306;2022-09-28T02:35:16;31.17;;;14.57;;
43933;SDS011;59081;42.706;23.306;2022-09-28T02:37:44;29.35;;;15.10;;
43933;SDS011;59081;42.706;23.306;2022-09-28T02:40:11;22.17;;;14.95;;
43933;SDS011;59081;42.706;23.306;2022-09-28T02:42:49;31.27;;;14.10;;
43933;SDS011;59081;42.706;23.306;2022-09-28T02:45:40;21.65;;;14.75;;
43933;SDS011;59081;42.706;23.306;2022-09-28T02:48:28;24.27;;;14.60;;
43933;SDS011;59081;42.706;23.306;2022-09-28T02:51:25;21.73;;;12.50;;
43933;SDS011;59081;42.706;23.306;2022-09-28T03:00:25;26.77;;;12.40;;
43933;SDS011;59081;42.706;23.306;2022-09-28T03:03:04;24.38;;;13.85;;
43933;SDS011;59081;42.706;23.306;2022-09-28T03:05:54;31.08;;;14.88;;
43933;SDS011;59081;42.706;23.306;2022-09-28T03:08:26;21.20;;;12.75;;
43933;SDS011;59081;42.706;23.306;2022-09-28T03:11:13;23.67;;;13.90;;
43933;SDS011;59081;42.706;23.306;2022-09-28T03:13:52;22.35;;;14.00;;
43933;SDS011;59081;42.706;23.306;2022-09-28T03:16:23;24.73;;;14.88;;
43933;SDS011;59081;42.706;23.306;2022-09-28T03:26:38;25.98;;;14.82;;
43933;SDS011;59081;42.706;23.306;2022-09-28T03:29:13;25.23;;;14.73;;
43933;SDS011;59081;42.706;23.306;2022-09-28T03:31:44;22.42;;;14.05;;
43933;SDS011;59081;42.706;23.306;2022-09-28T03:36:44;23.55;;;13.35;;
43933;SDS011;59081;42.706;23.306;2022-09-28T03:39:30;24.25;;;14.10;;
43933;SDS011;59081;42.706;23.306;2022-09-28T03:41:58;22.95;;;13.50;;
43933;SDS011;59081;42.706;23.306;2022-09-28T03:44:27;23.38;;;15.40;;
43933;SDS011;59081;42.706;23.306;2022-09-28T03:47:04;24.48;;;12.77;;
43933;SDS011;59081;42.706;23.306;2022-09-28T03:49:32;27.50;;;14.20;;
43933;SDS011;59081;42.706;23.306;2022-09-28T03:52:02;23.27;;;13.50;;
43933;SDS011;59081;42.706;23.306;2022-09-28T03:54:28;30.55;;;13.88;;
43933;SDS011;59081;42.706;23.306;2022-09-28T03:57:08;31.17;;;16.45;;
43933;SDS011;59081;42.706;23.306;2022-09-28T03:59:34;37.35;;;16.00;;
43933;SDS011;59081;42.706;23.306;2022-09-28T04:02:02;25.35;;;15.80;;
43933;SDS011;59081;42.706;23.306;2022-09-28T04:04:29;24.27;;;14.82;;
43933;SDS011;59081;42.706;23.306;2022-09-28T04:06:58;27.45;;;17.02;;
43933;SDS011;59081;42.706;23.306;2022-09-28T04:11:54;32.03;;;18.38;;
43933;SDS011;59081;42.706;23.306;2022-09-28T04:14:20;26.58;;;15.95;;
43933;SDS011;59081;42.706;23.306;2022-09-28T04:16:52;26.45;;;16.58;;
43933;SDS011;59081;42.706;23.306;2022-09-28T04:22:10;39.55;;;17.75;;
43933;SDS011;59081;42.706;23.306;2022-09-28T04:24:39;37.35;;;19.52;;
43933;SDS011;59081;42.706;23.306;2022-09-28T04:27:08;34.15;;;19.58;;
43933;SDS011;59081;42.706;23.306;2022-09-28T04:29:55;35.53;;;19.13;;
43933;SDS011;59081;42.706;23.306;2022-09-28T04:32:21;41.58;;;24.50;;
43933;SDS011;59081;42.706;23.306;2022-09-28T04:34:46;34.85;;;19.60;;
43933;SDS011;59081;42.706;23.306;2022-09-28T04:37:12;34.30;;;16.38;;
43933;SDS011;59081;42.706;23.306;2022-09-28T04:39:39;38.55;;;18.60;;
43933;SDS011;59081;42.706;23.306;2022-09-28T04:42:10;28.00;;;15.98;;
43933;SDS011;59081;42.706;23.306;2022-09-28T04:44:36;32.42;;;15.88;;
43933;SDS011;59081;42.706;23.306;2022-09-28T04:47:09;31.73;;;15.75;;
43933;SDS011;59081;42.706;23.306;2022-09-28T04:49:35;32.53;;;15.88;;
43933;SDS011;59081;42.706;23.306;2022-09-28T04:52:02;34.20;;;16.17;;
43933;SDS011;59081;42.706;23.306;2022-09-28T04:54:29;27.60;;;16.70;;
43933;SDS011;59081;42.706;23.306;2022-09-28T04:56:54;28.58;;;15.18;;
43933;SDS011;59081;42.706;23.306;2022-09-28T04:59:21;31.25;;;16.38;;
43933;SDS011;59081;42.706;23.306;2022-09-28T05:01:46;34.35;;;16.15;;
43933;SDS011;59081;42.706;23.306;2022-09-28T05:04:15;31.67;;;16.20;;
43933;SDS011;59081;42.706;23.306;2022-09-28T05:06:54;43.00;;;16.67;;
43933;SDS011;59081;42.706;23.306;2022-09-28T05:09:28;30.27;;;16.30;;
43933;SDS011;59081;42.706;23.306;2022-09-28T05:12:05;32.67;;;15.43;;
43933;SDS011;59081;42.706;23.306;2022-09-28T05:14:32;29.85;;;14.60;;
43933;SDS011;59081;42.706;23.306;2022-09-28T05:17:09;23.00;;;14.65;;
43933;SDS011;59081;42.706;23.306;2022-09-28T05:19:37;26.00;;;15.18;;
43933;SDS011;59081;42.706;23.306;2022-09-28T05:22:03;32.25;;;16.55;;
43933;SDS011;59081;42.706;23.306;2022-09-28T05:24:30;30.83;;;17.15;;
43933;SDS011;59081;42.706;23.306;2022-09-28T05:29:26;32.88;;;15.88;;
43933;SDS011;59081;42.706;23.306;2022-09-28T05:31:52;27.60;;;17.10;;
43933;SDS011;59081;42.706;23.306;2022-09-28T05:34:18;30.77;;;15.13;;
43933;SDS011;59081;42.706;23.306;2022-09-28T05:36:43;28.20;;;16.42;;
43933;SDS011;59081;42.706;23.306;2022-09-28T05:39:10;21.70;;;13.23;;
43933;SDS011;59081;42.706;23.306;2022-09-28T05:41:36;22.58;;;15.27;;
43933;SDS011;59081;42.706;23.306;2022-09-28T05:44:05;24.27;;;14.50;;
43933;SDS011;59081;42.706;23.306;2022-09-28T05:46:38;29.27;;;17.05;;
43933;SDS011;59081;42.706;23.306;2022-09-28T05:49:04;24.45;;;16.35;;
43933;SDS011;59081;42.706;23.306;2022-09-28T05:51:30;28.50;;;17.98;;
43933;SDS011;59081;42.706;23.306;2022-09-28T05:53:55;28.63;;;18.20;;
43933;SDS011;59081;42.706;23.306;2022-09-28T05:56:24;28.02;;;16.67;;
43933;SDS011;59081;42.706;23.306;2022-09-28T05:58:50;29.23;;;17.95;;
43933;SDS011;59081;42.706;23.306;2022-09-28T06:01:16;37.33;;;19.00;;
43933;SDS011;59081;42.706;23.306;2022-09-28T06:03:41;32.17;;;19.67;;
43933;SDS011;59081;42.706;23.306;2022-09-28T06:06:13;41.75;;;22.33;;
43933;SDS011;59081;42.706;23.306;2022-09-28T06:08:38;41.65;;;23.00;;
43933;SDS011;59081;42.706;23.306;2022-09-28T06:11:07;43.15;;;23.15;;
43933;SDS011;59081;42.706;23.306;2022-09-28T06:13:34;37.85;;;22.30;;
43933;SDS011;59081;42.706;23.306;2022-09-28T06:16:03;46.35;;;23.95;;
43933;SDS011;59081;42.706;23.306;2022-09-28T06:18:31;38.78;;;22.20;;
43933;SDS011;59081;42.706;23.306;2022-09-28T06:21:00;36.83;;;20.98;;
43933;SDS011;59081;42.706;23.306;2022-09-28T06:23:29;36.92;;;20.83;;
43933;SDS011;59081;42.706;23.306;2022-09-28T06:25:57;38.38;;;20.35;;
43933;SDS011;59081;42.706;23.306;2022-09-28T06:28:23;35.22;;;20.25;;
43933;SDS011;59081;42.706;23.306;2022-09-28T06:30:50;32.50;;;18.98;;
43933;SDS011;59081;42.706;23.306;2022-09-28T06:33:16;35.38;;;19.42;;
43933;SDS011;59081;42.706;23.306;2022-09-28T06:35:42;34.35;;;18.25;;
43933;SDS011;59081;42.706;23.306;2022-09-28T06:38:08;32.67;;;20.02;;
43933;SDS011;59081;42.706;23.306;2022-09-28T06:40:36;38.10;;;21.92;;
43933;SDS011;59081;42.706;23.306;2022-09-28T06:43:03;40.40;;;21.17;;
43933;SDS011;59081;42.706;23.306;2022-09-28T06:45:34;36.65;;;22.13;;
43933;SDS011;59081;42.706;23.306;2022-09-28T06:48:02;47.60;;;27.85;;
43933;SDS011;59081;42.706;23.306;2022-09-28T06:50:30;64.25;;;32.65;;
43933;SDS011;59081;42.706;23.306;2022-09-28T06:53:00;60.97;;;35.72;;
43933;SDS011;59081;42.706;23.306;2022-09-28T06:55:26;53.20;;;33.35;;
43933;SDS011;59081;42.706;23.306;2022-09-28T06:57:59;57.20;;;30.13;;
43933;SDS011;59081;42.706;23.306;2022-09-28T07:00:26;43.70;;;25.25;;
43933;SDS011;59081;42.706;23.306;2022-09-28T07:02:53;40.22;;;22.35;;
43933;SDS011;59081;42.706;23.306;2022-09-28T07:05:19;43.67;;;23.33;;
43933;SDS011;59081;42.706;23.306;2022-09-28T07:10:18;44.05;;;23.13;;
43933;SDS011;59081;42.706;23.306;2022-09-28T07:12:44;37.70;;;22.90;;
43933;SDS011;59081;42.706;23.306;2022-09-28T07:15:10;37.90;;;23.55;;
43933;SDS011;59081;42.706;23.306;2022-09-28T07:17:36;36.13;;;22.70;;
43933;SDS011;59081;42.706;23.306;2022-09-28T07:20:01;37.10;;;22.85;;
43933;SDS011;59081;42.706;23.306;2022-09-28T07:22:29;31.75;;;19.58;;
43933;SDS011;59081;42.706;23.306;2022-09-28T07:24:55;23.48;;;15.10;;
43933;SDS011;59081;42.706;23.306;2022-09-28T07:27:23;28.60;;;18.63;;
43933;SDS011;59081;42.706;23.306;2022-09-28T07:29:48;33.55;;;18.50;;
43933;SDS011;59081;42.706;23.306;2022-09-28T07:32:17;27.35;;;17.90;;
43933;SDS011;59081;42.706;23.306;2022-09-28T07:34:44;37.47;;;21.15;;
43933;SDS011;59081;42.706;23.306;2022-09-28T07:37:10;32.28;;;20.20;;
43933;SDS011;59081;42.706;23.306;2022-09-28T07:39:37;36.20;;;21.23;;
43933;SDS011;59081;42.706;23.306;2022-09-28T07:42:35;38.15;;;20.75;;
43933;SDS011;59081;42.706;23.306;2022-09-28T07:45:02;31.35;;;19.83;;
43933;SDS011;59081;42.706;23.306;2022-09-28T07:47:28;27.70;;;19.58;;
43933;SDS011;59081;42.706;23.306;2022-09-28T07:49:54;28.88;;;18.83;;
43933;SDS011;59081;42.706;23.306;2022-09-28T07:52:23;29.42;;;19.10;;
43933;SDS011;59081;42.706;23.306;2022-09-28T07:54:50;31.33;;;18.88;;
43933;SDS011;59081;42.706;23.306;2022-09-28T07:57:19;27.75;;;18.45;;
43933;SDS011;59081;42.706;23.306;2022-09-28T07:59:45;30.77;;;18.25;;
43933;SDS011;59081;42.706;23.306;2022-09-28T08:02:11;31.75;;;19.33;;
43933;SDS011;59081;42.706;23.306;2022-09-28T08:04:37;30.27;;;19.77;;
43933;SDS011;59081;42.706;23.306;2022-09-28T08:07:03;27.33;;;18.58;;
43933;SDS011;59081;42.706;23.306;2022-09-28T08:09:35;31.88;;;18.45;;
43933;SDS011;59081;42.706;23.306;2022-09-28T08:12:01;27.50;;;17.83;;
43933;SDS011;59081;42.706;23.306;2022-09-28T08:14:28;27.08;;;17.73;;
43933;SDS011;59081;42.706;23.306;2022-09-28T08:16:57;28.10;;;16.13;;
43933;SDS011;59081;42.706;23.306;2022-09-28T08:19:24;19.95;;;15.13;;
43933;SDS011;59081;42.706;23.306;2022-09-28T08:21:49;19.20;;;13.75;;
43933;SDS011;59081;42.706;23.306;2022-09-28T08:24:15;18.02;;;13.63;;
43933;SDS011;59081;42.706;23.306;2022-09-28T08:26:42;20.98;;;12.90;;
43933;SDS011;59081;42.706;23.306;2022-09-28T08:29:08;17.98;;;12.30;;
43933;SDS011;59081;42.706;23.306;2022-09-28T08:31:34;19.35;;;12.05;;
43933;SDS011;59081;42.706;23.306;2022-09-28T08:34:00;17.17;;;12.30;;
43933;SDS011;59081;42.706;23.306;2022-09-28T08:36:26;16.92;;;10.88;;
43933;SDS011;59081;42.706;23.306;2022-09-28T08:38:52;19.02;;;10.80;;
43933;SDS011;59081;42.706;23.306;2022-09-28T08:44:11;18.25;;;8.35;;
43933;SDS011;59081;42.706;23.306;2022-09-28T08:46:48;15.20;;;9.50;;
43933;SDS011;59081;42.706;23.306;2022-09-28T08:49:34;15.23;;;9.40;;
43933;SDS011;59081;42.706;23.306;2022-09-28T08:52:15;14.75;;;8.70;;
43933;SDS011;59081;42.706;23.306;2022-09-28T08:55:01;17.10;;;8.95;;
43933;SDS011;59081;42.706;23.306;2022-09-28T08:57:39;13.00;;;7.10;;
43933;SDS011;59081;42.706;23.306;2022-09-28T09:00:22;14.98;;;7.90;;
43933;SDS011;59081;42.706;23.306;2022-09-28T09:02:57;10.80;;;6.30;;
43933;SDS011;59081;42.706;23.306;2022-09-28T09:05:26;11.90;;;5.80;;
43933;SDS011;59081;42.706;23.306;2022-09-28T09:11:12;14.07;;;6.15;;
43933;SDS011;59081;42.706;23.306;2022-09-28T09:22:16;13.80;;;5.63;;
43933;SDS011;59081;42.706;23.306;2022-09-28T09:24:48;19.90;;;6.70;;
43933;SDS011;59081;42.706;23.306;2022-09-28T09:30:19;15.30;;;6.60;;
43933;SDS011;59081;42.706;23.306;2022-09-28T09:32:54;18.08;;;7.25;;
43933;SDS011;59081;42.706;23.306;2022-09-28T09:49:24;14.20;;;5.15;;
43933;SDS011;59081;42.706;23.306;2022-09-28T09:54:17;7.43;;;5.10;;
43933;SDS011;59081;42.706;23.306;2022-09-28T09:56:52;10.23;;;4.07;;
43933;SDS011;59081;42.706;23.306;2022-09-28T09:59:21;7.53;;;4.30;;
43933;SDS011;59081;42.706;23.306;2022-09-28T10:01:57;8.60;;;4.05;;
43933;SDS011;59081;42.706;23.306;2022-09-28T10:04:30;9.40;;;3.72;;
43933;SDS011;59081;42.706;23.306;2022-09-28T10:07:02;8.05;;;4.03;;
43933;SDS011;59081;42.706;23.306;2022-09-28T10:09:34;8.32;;;3.42;;
43933;SDS011;59081;42.706;23.306;2022-09-28T10:12:03;9.02;;;3.63;;
43933;SDS011;59081;42.706;23.306;2022-09-28T10:14:39;11.73;;;4.20;;
43933;SDS011;59081;42.706;23.306;2022-09-28T10:17:04;6.97;;;2.90;;
43933;SDS011;59081;42.706;23.306;2022-09-28T10:19:31;9.25;;;3.15;;
43933;SDS011;59081;42.706;23.306;2022-09-28T10:21:58;12.02;;;3.83;;
43933;SDS011;59081;42.706;23.306;2022-09-28T10:24:31;7.47;;;3.00;;
43933;SDS011;59081;42.706;23.306;2022-09-28T10:27:02;7.40;;;2.85;;
43933;SDS011;59081;42.706;23.306;2022-09-28T10:29:32;4.97;;;2.67;;
43933;SDS011;59081;42.706;23.306;2022-09-28T10:32:16;8.05;;;3.03;;
43933;SDS011;59081;42.706;23.306;2022-09-28T10:34:46;9.57;;;2.97;;
43933;SDS011;59081;42.706;23.306;2022-09-28T10:37:12;11.63;;;2.20;;
43933;SDS011;59081;42.706;23.306;2022-09-28T10:39:45;7.53;;;2.45;;
43933;SDS011;59081;42.706;23.306;2022-09-28T10:42:24;4.97;;;2.30;;
43933;SDS011;59081;42.706;23.306;2022-09-28T10:44:54;4.35;;;2.13;;
43933;SDS011;59081;42.706;23.306;2022-09-28T10:47:23;5.03;;;2.00;;
43933;SDS011;59081;42.706;23.306;2022-09-28T10:49:50;6.90;;;2.08;;
43933;SDS011;59081;42.706;23.306;2022-09-28T10:52:34;6.03;;;1.98;;
43933;SDS011;59081;42.706;23.306;2022-09-28T10:57:45;8.18;;;2.20;;
43933;SDS011;59081;42.706;23.306;2022-09-28T11:03:00;7.43;;;1.85;;
43933;SDS011;59081;42.706;23.306;2022-09-28T11:05:26;5.72;;;1.70;;
43933;SDS011;59081;42.706;23.306;2022-09-28T11:07:52;3.35;;;1.42;;
43933;SDS011;59081;42.706;23.306;2022-09-28T11:10:23;6.40;;;1.55;;
43933;SDS011;59081;42.706;23.306;2022-09-28T11:12:51;5.57;;;1.60;;
43933;SDS011;59081;42.706;23.306;2022-09-28T11:15:19;3.22;;;1.48;;
43933;SDS011;59081;42.706;23.306;2022-09-28T11:17:48;3.70;;;1.58;;
43933;SDS011;59081;42.706;23.306;2022-09-28T11:22:59;10.23;;;2.30;;
43933;SDS011;59081;42.706;23.306;2022-09-28T11:25:40;6.22;;;1.92;;
43933;SDS011;59081;42.706;23.306;2022-09-28T11:28:12;4.10;;;1.50;;
43933;SDS011;59081;42.706;23.306;2022-09-28T11:30:51;4.70;;;1.73;;
43933;SDS011;59081;42.706;23.306;2022-09-28T11:33:18;3.00;;;1.35;;
43933;SDS011;59081;42.706;23.306;2022-09-28T11:35:55;6.88;;;1.88;;
43933;SDS011;59081;42.706;23.306;2022-09-28T11:41:49;5.57;;;1.77;;
43933;SDS011;59081;42.706;23.306;2022-09-28T11:50:13;3.25;;;1.50;;
43933;SDS011;59081;42.706;23.306;2022-09-28T11:52:52;3.47;;;1.10;;
43933;SDS011;59081;42.706;23.306;2022-09-28T11:55:39;4.68;;;1.42;;
43933;SDS011;59081;42.706;23.306;2022-09-28T11:58:26;5.47;;;1.52;;
43933;SDS011;59081;42.706;23.306;2022-09-28T12:00:58;6.72;;;1.77;;
43933;SDS011;59081;42.706;23.306;2022-09-28T12:03:38;3.10;;;1.30;;
43933;SDS011;59081;42.706;23.306;2022-09-28T12:06:13;3.28;;;1.65;;
43933;SDS011;59081;42.706;23.306;2022-09-28T12:08:47;7.90;;;1.75;;
43933;SDS011;59081;42.706;23.306;2022-09-28T12:14:16;5.07;;;1.43;;
43933;SDS011;59081;42.706;23.306;2022-09-28T12:16:48;4.60;;;1.30;;
43933;SDS011;59081;42.706;23.306;2022-09-28T12:19:55;5.60;;;1.50;;
43933;SDS011;59081;42.706;23.306;2022-09-28T12:22:32;3.80;;;1.50;;
43933;SDS011;59081;42.706;23.306;2022-09-28T12:25:19;6.85;;;1.70;;
43933;SDS011;59081;42.706;23.306;2022-09-28T12:27:51;3.85;;;1.55;;
43933;SDS011;59081;42.706;23.306;2022-09-28T12:30:34;5.72;;;2.03;;
43933;SDS011;59081;42.706;23.306;2022-09-28T12:33:06;5.22;;;1.55;;
43933;SDS011;59081;42.706;23.306;2022-09-28T12:41:04;4.85;;;1.38;;
43933;SDS011;59081;42.706;23.306;2022-09-28T12:43:49;2.38;;;0.88;;
43933;SDS011;59081;42.706;23.306;2022-09-28T12:46:45;2.50;;;0.82;;
43933;SDS011;59081;42.706;23.306;2022-09-28T12:57:39;4.28;;;1.00;;
43933;SDS011;59081;42.706;23.306;2022-09-28T13:00:31;4.40;;;1.00;;
43933;SDS011;59081;42.706;23.306;2022-09-28T13:19:57;1.48;;;0.73;;
43933;SDS011;59081;42.706;23.306;2022-09-28T13:22:48;2.63;;;1.05;;
43933;SDS011;59081;42.706;23.306;2022-09-28T13:25:22;3.03;;;1.10;;
43933;SDS011;59081;42.706;23.306;2022-09-28T13:30:16;2.72;;;0.95;;
43933;SDS011;59081;42.706;23.306;2022-09-28T13:32:43;3.30;;;1.80;;
43933;SDS011;59081;42.706;23.306;2022-09-28T13:35:14;5.68;;;1.15;;
43933;SDS011;59081;42.706;23.306;2022-09-28T13:37:45;4.80;;;1.20;;
43933;SDS011;59081;42.706;23.306;2022-09-28T13:40:11;4.38;;;0.88;;
43933;SDS011;59081;42.706;23.306;2022-09-28T13:52:51;3.83;;;1.13;;
43933;SDS011;59081;42.706;23.306;2022-09-28T13:58:31;1.90;;;1.02;;
43933;SDS011;59081;42.706;23.306;2022-09-28T14:01:19;3.90;;;0.68;;
43933;SDS011;59081;42.706;23.306;2022-09-28T14:06:53;5.35;;;1.50;;
43933;SDS011;59081;42.706;23.306;2022-09-28T14:15:01;1.92;;;0.82;;
43933;SDS011;59081;42.706;23.306;2022-09-28T14:20:38;4.88;;;0.95;;
43933;SDS011;59081;42.706;23.306;2022-09-28T14:31:52;3.25;;;0.80;;
43933;SDS011;59081;42.706;23.306;2022-09-28T14:34:35;3.65;;;0.70;;
43933;SDS011;59081;42.706;23.306;2022-09-28T14:37:04;1.30;;;0.68;;
43933;SDS011;59081;42.706;23.306;2022-09-28T14:40:24;5.60;;;1.50;;
43933;SDS011;59081;42.706;23.306;2022-09-28T14:54:00;5.50;;;1.60;;
43933;SDS011;59081;42.706;23.306;2022-09-28T14:56:40;4.63;;;1.23;;
43933;SDS011;59081;42.706;23.306;2022-09-28T14:59:18;1.08;;;0.57;;
43933;SDS011;59081;42.706;23.306;2022-09-28T15:02:01;3.63;;;0.98;;
43933;SDS011;59081;42.706;23.306;2022-09-28T15:04:30;3.75;;;1.50;;
43933;SDS011;59081;42.706;23.306;2022-09-28T15:07:00;4.72;;;0.88;;
43933;SDS011;59081;42.706;23.306;2022-09-28T15:12:03;2.95;;;1.00;;
43933;SDS011;59081;42.706;23.306;2022-09-28T15:14:45;3.83;;;0.93;;
43933;SDS011;59081;42.706;23.306;2022-09-28T15:17:17;1.48;;;0.70;;
43933;SDS011;59081;42.706;23.306;2022-09-28T15:19:51;2.22;;;0.80;;
43933;SDS011;59081;42.706;23.306;2022-09-28T15:22:57;2.85;;;0.88;;
43933;SDS011;59081;42.706;23.306;2022-09-28T15:25:30;5.97;;;1.33;;
43933;SDS011;59081;42.706;23.306;2022-09-28T15:28:00;2.83;;;0.93;;
43933;SDS011;59081;42.706;23.306;2022-09-28T15:30:32;0.65;;;0.50;;
43933;SDS011;59081;42.706;23.306;2022-09-28T15:32:59;9.50;;;0.82;;
43933;SDS011;59081;42.706;23.306;2022-09-28T15:36:06;2.25;;;1.17;;
43933;SDS011;59081;42.706;23.306;2022-09-28T15:38:32;6.28;;;1.20;;
43933;SDS011;59081;42.706;23.306;2022-09-28T15:41:02;4.20;;;1.42;;
43933;SDS011;59081;42.706;23.306;2022-09-28T15:43:31;6.65;;;1.40;;
43933;SDS011;59081;42.706;23.306;2022-09-28T15:46:04;2.50;;;1.30;;
43933;SDS011;59081;42.706;23.306;2022-09-28T15:48:39;6.78;;;1.45;;
43933;SDS011;59081;42.706;23.306;2022-09-28T15:51:08;4.20;;;2.47;;
43933;SDS011;59081;42.706;23.306;2022-09-28T15:53:56;2.40;;;1.17;;
43933;SDS011;59081;42.706;23.306;2022-09-28T15:56:22;6.30;;;1.63;;
43933;SDS011;59081;42.706;23.306;2022-09-28T16:01:40;5.72;;;2.10;;
43933;SDS011;59081;42.706;23.306;2022-09-28T16:15:05;9.60;;;3.85;;
43933;SDS011;59081;42.706;23.306;2022-09-28T16:18:03;7.57;;;3.63;;
43933;SDS011;59081;42.706;23.306;2022-09-28T16:20:37;14.35;;;3.55;;
43933;SDS011;59081;42.706;23.306;2022-09-28T16:33:52;15.20;;;2.95;;
43933;SDS011;59081;42.706;23.306;2022-09-28T16:36:19;13.45;;;6.22;;
43933;SDS011;59081;42.706;23.306;2022-09-28T16:38:48;11.90;;;3.92;;
43933;SDS011;59081;42.706;23.306;2022-09-28T16:41:24;24.15;;;6.18;;
43933;SDS011;59081;42.706;23.306;2022-09-28T16:43:54;13.35;;;5.93;;
43933;SDS011;59081;42.706;23.306;2022-09-28T16:46:26;16.50;;;6.10;;
43933;SDS011;59081;42.706;23.306;2022-09-28T16:48:55;12.70;;;3.83;;
43933;SDS011;59081;42.706;23.306;2022-09-28T16:51:21;12.23;;;4.00;;
43933;SDS011;59081;42.706;23.306;2022-09-28T16:53:49;12.88;;;4.47;;
43933;SDS011;59081;42.706;23.306;2022-09-28T16:56:34;13.30;;;3.70;;
43933;SDS011;59081;42.706;23.306;2022-09-28T16:59:01;16.08;;;4.75;;
43933;SDS011;59081;42.706;23.306;2022-09-28T17:01:29;10.73;;;5.22;;
43933;SDS011;59081;42.706;23.306;2022-09-28T17:03:55;18.40;;;7.50;;
43933;SDS011;59081;42.706;23.306;2022-09-28T17:06:21;13.65;;;5.07;;
43933;SDS011;59081;42.706;23.306;2022-09-28T17:08:56;12.48;;;3.60;;
43933;SDS011;59081;42.706;23.306;2022-09-28T17:11:22;15.18;;;4.78;;
43933;SDS011;59081;42.706;23.306;2022-09-28T17:13:48;12.15;;;4.18;;
43933;SDS011;59081;42.706;23.306;2022-09-28T17:16:20;25.60;;;9.98;;
43933;SDS011;59081;42.706;23.306;2022-09-28T17:18:47;19.10;;;10.38;;
43933;SDS011;59081;42.706;23.306;2022-09-28T17:21:17;21.45;;;8.88;;
43933;SDS011;59081;42.706;23.306;2022-09-28T17:23:45;25.88;;;10.45;;
43933;SDS011;59081;42.706;23.306;2022-09-28T17:26:16;18.40;;;6.18;;
43933;SDS011;59081;42.706;23.306;2022-09-28T17:28:44;18.10;;;6.50;;
43933;SDS011;59081;42.706;23.306;2022-09-28T17:31:14;15.82;;;6.10;;
43933;SDS011;59081;42.706;23.306;2022-09-28T17:33:40;26.27;;;9.20;;
43933;SDS011;59081;42.706;23.306;2022-09-28T17:36:08;30.70;;;12.70;;
43933;SDS011;59081;42.706;23.306;2022-09-28T17:38:39;24.33;;;8.38;;
43933;SDS011;59081;42.706;23.306;2022-09-28T17:41:08;27.80;;;8.23;;
43933;SDS011;59081;42.706;23.306;2022-09-28T17:43:35;26.33;;;10.10;;
43933;SDS011;59081;42.706;23.306;2022-09-28T17:46:01;25.85;;;8.63;;
43933;SDS011;59081;42.706;23.306;2022-09-28T17:48:40;24.20;;;8.70;;
43933;SDS011;59081;42.706;23.306;2022-09-28T17:51:10;22.77;;;8.55;;
43933;SDS011;59081;42.706;23.306;2022-09-28T17:53:39;29.92;;;9.77;;
43933;SDS011;59081;42.706;23.306;2022-09-28T17:56:05;18.50;;;6.18;;
43933;SDS011;59081;42.706;23.306;2022-09-28T17:58:31;21.92;;;8.13;;
43933;SDS011;59081;42.706;23.306;2022-09-28T18:00:57;28.08;;;8.75;;
43933;SDS011;59081;42.706;23.306;2022-09-28T18:03:23;21.10;;;8.10;;
43933;SDS011;59081;42.706;23.306;2022-09-28T18:06:23;13.85;;;6.78;;